createdAt,value
2023-10-06T00:02:02.411Z,8.98
2023-10-06T00:04:09.348Z,8.25
2023-10-06T00:06:15.108Z,7.22
2023-10-06T00:08:22.577Z,10.15
2023-10-06T00:10:28.636Z,7.05
2023-10-06T00:12:34.581Z,6.32
2023-10-06T00:14:44.836Z,10.05
2023-10-06T00:16:51.114Z,7.45
2023-10-06T00:19:00.678Z,11.45
2023-10-06T00:21:08.656Z,10.48
2023-10-06T00:23:16.142Z,12.50
2023-10-06T00:25:25.948Z,12.75
2023-10-06T00:27:32.271Z,9.07
2023-10-06T00:29:38.362Z,10.95
2023-10-06T00:31:43.071Z,10.13
2023-10-06T00:34:02.910Z,12.65
2023-10-06T00:36:13.533Z,8.55
2023-10-06T00:38:18.862Z,9.68
2023-10-06T00:40:26.458Z,8.50
2023-10-06T00:42:30.774Z,7.68
2023-10-06T00:44:33.366Z,6.82
2023-10-06T00:46:46.384Z,7.20
2023-10-06T00:48:54.958Z,8.65
2023-10-06T00:50:59.467Z,7.30
2023-10-06T00:53:05.519Z,9.48
2023-10-06T00:55:12.195Z,7.43
2023-10-06T00:57:20.712Z,9.18
2023-10-06T00:59:25.038Z,6.47
2023-10-06T01:01:28.701Z,8.70
2023-10-06T01:03:40.065Z,9.15
2023-10-06T01:05:47.991Z,11.30
2023-10-06T01:07:52.046Z,8.75
2023-10-06T01:09:58.430Z,11.00
2023-10-06T01:12:08.451Z,7.10
2023-10-06T01:14:15.902Z,12.30
2023-10-06T01:16:19.612Z,8.82
2023-10-06T01:18:25.390Z,9.00
2023-10-06T01:20:35.335Z,8.60
2023-10-06T01:22:45.386Z,12.00
2023-10-06T01:24:48.937Z,11.43
2023-10-06T01:27:07.272Z,12.68
2023-10-06T01:29:15.256Z,10.45
2023-10-06T01:31:20.761Z,13.23
2023-10-06T01:33:25.801Z,11.32
2023-10-06T01:35:34.925Z,9.38
2023-10-06T01:37:42.622Z,10.65
2023-10-06T01:39:49.816Z,9.85
2023-10-06T01:41:54.502Z,8.88
2023-10-06T01:43:58.209Z,8.13
2023-10-06T01:46:02.054Z,7.03
2023-10-06T01:48:23.550Z,9.02
2023-10-06T01:50:28.702Z,5.78
2023-10-06T01:52:32.504Z,10.45
2023-10-06T01:54:37.434Z,9.30
2023-10-06T01:56:41.952Z,10.32
2023-10-06T01:58:45.467Z,9.32
2023-10-06T02:00:59.448Z,11.32
2023-10-06T02:03:03.146Z,8.07
2023-10-06T02:05:09.133Z,7.45
2023-10-06T02:07:12.116Z,8.70
2023-10-06T02:09:19.392Z,7.35
2023-10-06T02:11:29.043Z,12.70
2023-10-06T02:13:31.538Z,9.95
2023-10-06T02:15:35.559Z,10.48
2023-10-06T02:17:39.433Z,9.95
2023-10-06T02:19:44.494Z,8.30
2023-10-06T02:21:50.419Z,9.70
2023-10-06T02:23:56.921Z,6.43
2023-10-06T02:26:01.231Z,7.82
2023-10-06T02:28:10.094Z,10.05
2023-10-06T02:30:17.083Z,8.18
2023-10-06T02:32:20.663Z,8.98
2023-10-06T02:34:30.500Z,8.45
2023-10-06T02:36:35.278Z,8.30
2023-10-06T02:38:48.136Z,9.45
2023-10-06T02:40:51.705Z,7.18
2023-10-06T02:43:08.344Z,8.40
2023-10-06T02:45:17.960Z,6.35
2023-10-06T02:47:22.862Z,8.45
2023-10-06T02:49:35.616Z,4.47
2023-10-06T02:51:48.713Z,10.00
2023-10-06T02:53:52.733Z,8.35
2023-10-06T02:55:58.144Z,7.10
2023-10-06T02:58:01.748Z,9.32
2023-10-06T03:00:31.294Z,8.07
2023-10-06T03:02:36.402Z,7.55
2023-10-06T03:04:41.402Z,7.55
2023-10-06T03:06:54.052Z,10.18
2023-10-06T03:08:58.026Z,11.00
2023-10-06T03:11:02.624Z,9.43
2023-10-06T03:13:09.512Z,12.93
2023-10-06T03:15:29.871Z,9.40
2023-10-06T03:17:35.729Z,12.00
2023-10-06T03:19:42.263Z,10.13
2023-10-06T03:21:47.007Z,11.57
2023-10-06T03:23:59.261Z,9.52
2023-10-06T03:26:04.718Z,10.48
2023-10-06T03:28:12.384Z,7.63
2023-10-06T03:30:26.776Z,11.52
2023-10-06T03:32:34.276Z,7.82
2023-10-06T03:34:39.401Z,7.43
2023-10-06T03:36:47.564Z,10.85
2023-10-06T03:38:59.610Z,11.23
2023-10-06T03:41:24.596Z,9.57
2023-10-06T03:43:37.103Z,9.38
2023-10-06T03:45:41.663Z,7.43
2023-10-06T03:47:44.763Z,9.02
2023-10-06T03:49:49.899Z,7.80
2023-10-06T03:51:53.073Z,9.45
2023-10-06T03:53:57.591Z,9.10
2023-10-06T03:56:02.389Z,6.70
2023-10-06T03:58:06.759Z,7.88
2023-10-06T04:02:53.761Z,11.45
2023-10-06T04:04:58.691Z,9.40
2023-10-06T04:07:03.410Z,11.57
2023-10-06T04:09:08.882Z,8.57
2023-10-06T04:11:14.947Z,14.75
2023-10-06T04:13:19.166Z,19.98
2023-10-06T04:15:21.667Z,348.13
2023-10-06T04:17:25.174Z,482.13
2023-10-06T04:19:28.701Z,781.72
2023-10-06T04:21:35.797Z,345.73
2023-10-06T04:23:43.142Z,1017.13
2023-10-06T04:25:47.768Z,960.45
2023-10-06T04:27:51.125Z,797.67
2023-10-06T04:29:54.808Z,492.42
2023-10-06T04:31:58.433Z,6.32
2023-10-06T04:34:02.499Z,127.68
2023-10-06T04:36:09.823Z,6.80
2023-10-06T04:38:14.093Z,5.63
2023-10-06T04:40:21.377Z,10.15
2023-10-06T04:42:25.525Z,7.75
2023-10-06T04:44:30.061Z,10.07
2023-10-06T04:46:36.406Z,9.93
2023-10-06T04:48:39.536Z,6.22
2023-10-06T04:50:43.904Z,7.18
2023-10-06T04:52:48.172Z,4.20
2023-10-06T04:54:53.392Z,7.55
2023-10-06T04:57:09.803Z,6.07
2023-10-06T04:59:15.177Z,7.00
2023-10-06T05:01:19.075Z,6.88
2023-10-06T05:03:22.791Z,7.13
2023-10-06T05:05:28.163Z,4.28
2023-10-06T05:07:32.801Z,7.00
2023-10-06T05:09:40.826Z,3.97
2023-10-06T05:11:47.459Z,3.90
2023-10-06T05:13:55.150Z,3.22
2023-10-06T05:15:59.935Z,5.75
2023-10-06T05:18:04.580Z,3.67
2023-10-06T05:20:20.706Z,3.65
2023-10-06T05:22:24.245Z,4.30
2023-10-06T05:24:27.778Z,6.22
2023-10-06T05:26:34.415Z,6.65
2023-10-06T05:28:39.996Z,5.20
2023-10-06T05:30:43.873Z,6.28
2023-10-06T05:32:47.664Z,4.45
2023-10-06T05:34:51.670Z,5.38
2023-10-06T05:36:56.091Z,4.95
2023-10-06T05:39:01.058Z,4.38
2023-10-06T05:41:13.061Z,7.47
2023-10-06T05:43:17.572Z,8.20
2023-10-06T05:45:22.611Z,8.45
2023-10-06T05:47:25.188Z,6.82
2023-10-06T05:49:33.796Z,7.78
2023-10-06T05:51:39.978Z,9.13
2023-10-06T05:53:45.533Z,7.22
2023-10-06T05:55:51.265Z,7.00
2023-10-06T05:57:57.270Z,6.82
2023-10-06T06:00:02.338Z,7.13
2023-10-06T06:02:11.056Z,6.88
2023-10-06T06:04:16.723Z,6.70
2023-10-06T06:06:24.390Z,9.63
2023-10-06T06:08:31.641Z,8.82
2023-10-06T06:10:36.486Z,9.88
2023-10-06T06:12:40.755Z,6.20
2023-10-06T06:14:45.829Z,7.40
2023-10-06T06:16:49.888Z,6.55
2023-10-06T06:18:55.114Z,11.20
2023-10-06T06:21:03.447Z,11.23
2023-10-06T06:23:10.316Z,9.45
2023-10-06T06:25:14.301Z,16.42
2023-10-06T06:27:18.310Z,15.00
2023-10-06T06:29:22.599Z,15.65
2023-10-06T06:31:27.707Z,8.50
2023-10-06T06:33:34.159Z,13.10
2023-10-06T06:35:40.375Z,23.08
2023-10-06T06:37:44.547Z,17.58
2023-10-06T06:39:49.808Z,19.73
2023-10-06T06:41:58.348Z,13.52
2023-10-06T06:44:02.744Z,15.43
2023-10-06T06:46:09.200Z,20.73
2023-10-06T06:48:14.855Z,11.25
2023-10-06T06:50:19.811Z,9.75
2023-10-06T06:52:24.954Z,11.98
2023-10-06T06:54:28.760Z,11.48
2023-10-06T06:56:33.115Z,8.68
2023-10-06T06:58:38.715Z,7.60
2023-10-06T07:00:43.158Z,11.25
2023-10-06T07:02:46.631Z,10.05
2023-10-06T07:04:50.509Z,7.65
2023-10-06T07:06:55.229Z,10.77
2023-10-06T07:09:01.233Z,9.32
2023-10-06T07:11:11.600Z,11.85
2023-10-06T07:13:15.396Z,10.80
2023-10-06T07:15:20.394Z,9.90
2023-10-06T07:17:26.334Z,9.73
2023-10-06T07:19:30.842Z,10.65
2023-10-06T07:21:37.007Z,10.93
2023-10-06T07:23:41.858Z,10.32
2023-10-06T07:25:50.219Z,9.43
2023-10-06T07:27:56.966Z,14.27
2023-10-06T07:30:05.482Z,14.13
2023-10-06T07:32:09.586Z,10.07
2023-10-06T07:34:15.569Z,12.25
2023-10-06T07:36:20.750Z,12.43
2023-10-06T07:38:25.935Z,9.70
2023-10-06T07:40:31.315Z,9.13
2023-10-06T07:42:41.511Z,10.45
2023-10-06T07:44:46.712Z,9.60
2023-10-06T07:46:53.881Z,9.20
2023-10-06T07:48:59.174Z,8.48
2023-10-06T07:51:07.381Z,9.57
2023-10-06T07:53:11.354Z,11.02
2023-10-06T07:55:14.133Z,9.75
2023-10-06T07:57:18.003Z,10.63
2023-10-06T07:59:23.561Z,9.88
2023-10-06T08:01:28.831Z,8.75
2023-10-06T08:03:34.343Z,8.52
2023-10-06T08:05:39.570Z,7.88
2023-10-06T08:07:44.180Z,7.65
2023-10-06T08:09:49.108Z,10.90
2023-10-06T08:11:55.938Z,9.73
2023-10-06T08:14:00.209Z,8.77
2023-10-06T08:16:08.560Z,7.97
2023-10-06T08:18:13.571Z,9.90
2023-10-06T08:20:17.765Z,9.40
2023-10-06T08:22:23.801Z,11.00
2023-10-06T08:24:28.122Z,7.93
2023-10-06T08:26:38.540Z,12.50
2023-10-06T08:28:42.540Z,7.90
2023-10-06T08:30:47.022Z,8.88
2023-10-06T08:32:54.196Z,8.60
2023-10-06T08:34:57.644Z,10.73
2023-10-06T08:37:05.777Z,8.30
2023-10-06T08:39:10.895Z,12.15
2023-10-06T08:41:17.418Z,10.60
2023-10-06T08:43:22.619Z,11.82
2023-10-06T08:45:32.626Z,12.23
2023-10-06T08:47:49.106Z,11.43
2023-10-06T08:50:02.857Z,9.52
2023-10-06T08:52:08.051Z,11.05
2023-10-06T08:54:15.187Z,13.90
2023-10-06T08:56:54.046Z,13.43
2023-10-06T08:58:57.891Z,17.45
2023-10-06T09:01:06.457Z,16.02
2023-10-06T09:03:11.186Z,17.08
2023-10-06T09:05:18.359Z,21.98
2023-10-06T09:07:23.165Z,24.55
2023-10-06T09:09:30.680Z,23.60
2023-10-06T09:11:45.043Z,19.08
2023-10-06T09:13:49.050Z,20.02
2023-10-06T09:15:58.509Z,21.67
2023-10-06T09:18:20.660Z,17.58
2023-10-06T09:20:33.581Z,15.75
2023-10-06T09:22:59.101Z,12.43
2023-10-06T09:25:06.191Z,16.33
2023-10-06T09:27:27.032Z,17.25
2023-10-06T09:29:34.339Z,11.70
2023-10-06T09:34:26.132Z,12.80
2023-10-06T09:36:44.369Z,14.82
2023-10-06T09:38:49.798Z,13.07
2023-10-06T09:40:55.121Z,11.57
2023-10-06T09:42:59.404Z,10.20
2023-10-06T09:45:09.130Z,14.45
2023-10-06T09:47:13.379Z,11.18
2023-10-06T09:49:19.760Z,11.13
2023-10-06T09:51:24.944Z,14.30
2023-10-06T09:53:32.248Z,10.65
2023-10-06T09:55:36.964Z,12.65
2023-10-06T09:57:42.965Z,13.05
2023-10-06T09:59:49.131Z,12.98
2023-10-06T10:01:53.218Z,10.70
2023-10-06T10:04:00.131Z,15.02
2023-10-06T10:06:06.266Z,16.48
2023-10-06T10:08:10.338Z,14.02
2023-10-06T10:10:15.671Z,12.93
2023-10-06T10:12:24.676Z,14.38
2023-10-06T10:14:50.784Z,13.45
2023-10-06T10:17:04.789Z,11.90
2023-10-06T10:19:12.671Z,11.32
2023-10-06T10:21:17.112Z,9.68
2023-10-06T10:23:22.407Z,11.95
2023-10-06T10:25:28.410Z,14.05
2023-10-06T10:27:34.577Z,13.05
2023-10-06T10:29:38.963Z,16.60
2023-10-06T10:32:00.092Z,10.93
2023-10-06T10:34:19.014Z,11.07
2023-10-06T10:36:28.752Z,13.13
2023-10-06T10:38:36.297Z,16.13
2023-10-06T10:40:51.494Z,14.27
2023-10-06T10:43:02.346Z,14.18
2023-10-06T10:45:32.034Z,18.00
2023-10-06T10:47:36.248Z,13.65
2023-10-06T10:49:44.157Z,11.82
2023-10-06T10:52:09.983Z,13.15
2023-10-06T10:54:24.249Z,9.32
2023-10-06T10:56:38.304Z,12.63
2023-10-06T10:59:19.878Z,12.30
2023-10-06T11:01:25.454Z,11.75
2023-10-06T11:03:30.318Z,9.68
2023-10-06T11:05:34.381Z,13.23
2023-10-06T11:07:38.337Z,12.07
2023-10-06T11:09:52.186Z,10.73
2023-10-06T11:12:11.739Z,10.45
2023-10-06T11:14:23.656Z,11.05
2023-10-06T11:16:28.003Z,11.07
2023-10-06T11:18:36.821Z,13.45
2023-10-06T11:20:43.416Z,10.02
2023-10-06T11:22:56.088Z,9.43
2023-10-06T11:25:07.427Z,11.32
2023-10-06T11:27:21.436Z,10.68
2023-10-06T11:29:36.405Z,12.43
2023-10-06T11:31:40.317Z,8.82
2023-10-06T11:33:44.477Z,9.57
2023-10-06T11:35:48.540Z,10.77
2023-10-06T11:37:54.391Z,10.40
2023-10-06T11:39:59.186Z,14.05
2023-10-06T11:42:38.152Z,14.65
2023-10-06T11:44:43.950Z,10.82
2023-10-06T11:46:58.055Z,9.70
2023-10-06T11:49:11.975Z,10.23
2023-10-06T11:51:16.999Z,9.93
2023-10-06T11:53:25.286Z,10.95
2023-10-06T11:55:37.124Z,14.98
2023-10-06T11:57:55.798Z,11.18
2023-10-06T12:00:02.654Z,13.63
2023-10-06T12:02:11.557Z,10.20
2023-10-06T12:04:28.105Z,12.35
2023-10-06T12:06:40.253Z,13.50
2023-10-06T12:08:45.262Z,9.15
2023-10-06T12:10:51.984Z,12.43
2023-10-06T12:12:57.652Z,12.95
2023-10-06T12:15:02.837Z,9.73
2023-10-06T12:17:07.679Z,10.93
2023-10-06T12:19:12.748Z,9.13
2023-10-06T12:21:17.393Z,10.77
2023-10-06T12:23:32.008Z,10.32
2023-10-06T12:25:37.780Z,9.57
2023-10-06T12:27:45.221Z,8.90
2023-10-06T12:29:56.818Z,10.10
2023-10-06T12:32:02.982Z,10.98
2023-10-06T12:34:09.875Z,9.75
2023-10-06T12:36:14.264Z,9.82
2023-10-06T12:38:17.518Z,11.95
2023-10-06T12:40:21.726Z,10.75
2023-10-06T12:42:25.571Z,10.07
2023-10-06T12:44:29.620Z,10.63
2023-10-06T12:46:35.289Z,6.63
2023-10-06T12:48:40.424Z,10.85
2023-10-06T12:50:46.595Z,8.50
2023-10-06T12:52:53.806Z,9.85
2023-10-06T12:54:57.516Z,8.75
2023-10-06T12:57:01.706Z,9.50
2023-10-06T12:59:05.768Z,8.80
2023-10-06T13:01:10.383Z,9.15
2023-10-06T13:03:18.752Z,8.68
2023-10-06T13:05:24.360Z,10.23
2023-10-06T13:07:32.695Z,8.00
2023-10-06T13:09:37.944Z,8.20
2023-10-06T13:11:46.351Z,8.43
2023-10-06T13:13:51.600Z,9.30
2023-10-06T13:15:56.161Z,10.13
2023-10-06T13:18:01.845Z,9.80
2023-10-06T13:20:09.508Z,8.82
2023-10-06T13:22:13.366Z,9.60
2023-10-06T13:24:20.355Z,10.88
2023-10-06T13:26:40.216Z,8.52
2023-10-06T13:28:46.938Z,8.25
2023-10-06T13:30:53.168Z,9.05
2023-10-06T13:32:59.074Z,8.50
2023-10-06T13:35:06.424Z,9.75
2023-10-06T13:37:10.806Z,8.48
2023-10-06T13:39:17.382Z,10.85
2023-10-06T13:41:21.653Z,12.07
2023-10-06T13:43:27.779Z,7.90
2023-10-06T13:45:32.775Z,8.80
2023-10-06T13:47:39.441Z,9.00
2023-10-06T13:49:43.831Z,11.75
2023-10-06T13:51:50.145Z,10.48
2023-10-06T13:53:53.910Z,8.75
2023-10-06T13:55:57.780Z,10.18
2023-10-06T13:58:03.738Z,8.70
2023-10-06T14:00:13.244Z,9.88
2023-10-06T14:02:18.142Z,10.60
2023-10-06T14:04:25.734Z,13.60
2023-10-06T14:06:30.179Z,8.45
2023-10-06T14:08:36.331Z,11.40
2023-10-06T14:10:40.860Z,8.85
2023-10-06T14:12:50.445Z,9.27
2023-10-06T14:15:21.375Z,9.60
2023-10-06T14:17:33.779Z,10.57
2023-10-06T14:19:37.725Z,10.98
2023-10-06T14:21:42.062Z,8.80
2023-10-06T14:23:51.070Z,9.63
2023-10-06T14:25:57.842Z,8.32
2023-10-06T14:28:01.795Z,11.07
2023-10-06T14:30:10.235Z,9.70
2023-10-06T14:32:19.889Z,9.20
2023-10-06T14:34:48.167Z,7.85
2023-10-06T14:36:59.158Z,8.82
2023-10-06T14:39:22.474Z,7.50
2023-10-06T14:41:43.748Z,7.90
2023-10-06T14:44:06.255Z,8.23
2023-10-06T14:46:11.795Z,9.57
2023-10-06T14:48:16.574Z,10.98
2023-10-06T14:50:21.275Z,7.10
2023-10-06T14:52:25.705Z,9.68
2023-10-06T14:54:33.183Z,8.82
2023-10-06T14:56:37.923Z,8.95
2023-10-06T14:58:42.121Z,9.18
2023-10-06T15:00:47.866Z,7.70
2023-10-06T15:02:52.235Z,7.38
2023-10-06T15:04:58.305Z,10.77
2023-10-06T15:07:03.142Z,8.48
2023-10-06T15:09:10.072Z,8.00
2023-10-06T15:11:16.113Z,6.13
2023-10-06T15:13:20.212Z,8.68
2023-10-06T15:15:26.529Z,6.32
2023-10-06T15:17:32.672Z,11.05
2023-10-06T15:19:37.971Z,7.18
2023-10-06T15:21:44.309Z,9.52
2023-10-06T15:23:54.699Z,9.75
2023-10-06T15:25:59.106Z,10.48
2023-10-06T15:28:05.164Z,7.05
2023-10-06T15:30:11.631Z,10.48
2023-10-06T15:32:15.753Z,9.57
2023-10-06T15:34:20.081Z,7.65
2023-10-06T15:36:25.333Z,7.90
2023-10-06T15:38:29.498Z,7.55
2023-10-06T15:40:35.276Z,11.13
2023-10-06T15:42:39.959Z,8.98
2023-10-06T15:44:45.305Z,7.63
2023-10-06T15:46:49.399Z,9.30
2023-10-06T15:48:57.630Z,7.72
2023-10-06T15:51:01.411Z,10.38
2023-10-06T15:53:05.758Z,9.95
2023-10-06T15:55:11.430Z,9.02
2023-10-06T15:57:15.246Z,10.68
2023-10-06T15:59:21.819Z,10.25
2023-10-06T16:01:28.226Z,6.93
2023-10-06T16:03:32.575Z,11.10
2023-10-06T16:05:36.895Z,8.73
2023-10-06T16:07:40.776Z,9.40
2023-10-06T16:09:44.657Z,8.90
2023-10-06T16:11:49.369Z,7.95
2023-10-06T16:13:52.898Z,11.27
2023-10-06T16:16:11.326Z,9.65
2023-10-06T16:18:17.487Z,9.27
2023-10-06T16:20:21.712Z,8.95
2023-10-06T16:22:25.351Z,10.52
2023-10-06T16:24:29.465Z,11.00
2023-10-06T16:26:32.255Z,9.55
2023-10-06T16:28:36.120Z,9.23
2023-10-06T16:30:41.729Z,9.00
2023-10-06T16:32:45.711Z,9.93
2023-10-06T16:34:50.905Z,11.07
2023-10-06T16:36:55.363Z,11.18
2023-10-06T16:39:00.647Z,9.57
2023-10-06T16:41:03.798Z,11.40
2023-10-06T16:43:09.503Z,8.80
2023-10-06T16:45:14.454Z,11.88
2023-10-06T16:47:18.954Z,8.40
2023-10-06T16:49:23.548Z,8.70
2023-10-06T16:51:29.564Z,10.68
2023-10-06T16:53:33.566Z,8.65
2023-10-06T16:55:37.669Z,11.38
2023-10-06T16:57:41.973Z,14.75
2023-10-06T16:59:45.930Z,8.73
2023-10-06T17:01:50.776Z,13.05
2023-10-06T17:03:54.757Z,12.48
2023-10-06T17:05:58.914Z,12.27
2023-10-06T17:08:04.051Z,10.52
2023-10-06T17:10:09.987Z,8.63
2023-10-06T17:12:13.818Z,10.57
2023-10-06T17:14:17.951Z,10.50
2023-10-06T17:16:23.534Z,13.90
2023-10-06T17:18:27.527Z,8.80
2023-10-06T17:20:31.767Z,9.13
2023-10-06T17:22:37.683Z,9.10
2023-10-06T17:24:43.840Z,10.05
2023-10-06T17:26:47.876Z,13.05
2023-10-06T17:28:51.583Z,12.38
2023-10-06T17:30:55.980Z,12.52
2023-10-06T17:32:59.920Z,9.13
2023-10-06T17:35:03.436Z,9.75
2023-10-06T17:39:19.015Z,11.48
2023-10-06T17:41:25.680Z,12.93
2023-10-06T17:43:30.854Z,11.13
2023-10-06T17:45:40.428Z,10.07
2023-10-06T17:47:45.238Z,10.30
2023-10-06T17:49:51.511Z,10.30
2023-10-06T17:51:55.790Z,11.00
2023-10-06T17:53:59.938Z,14.73
2023-10-06T17:56:07.517Z,13.95
2023-10-06T17:58:13.276Z,9.48
2023-10-06T18:00:17.870Z,11.90
2023-10-06T18:02:24.618Z,11.15
2023-10-06T18:04:30.282Z,12.23
2023-10-06T18:06:35.102Z,11.15
2023-10-06T18:08:39.168Z,10.82
2023-10-06T18:10:46.506Z,10.40
2023-10-06T18:12:50.834Z,12.40
2023-10-06T18:14:56.158Z,12.32
2023-10-06T18:17:00.822Z,11.90
2023-10-06T18:19:05.817Z,13.57
2023-10-06T18:21:09.267Z,13.18
2023-10-06T18:23:13.621Z,7.93
2023-10-06T18:25:18.848Z,10.35
2023-10-06T18:27:22.797Z,9.80
2023-10-06T18:29:27.370Z,12.63
2023-10-06T18:31:33.381Z,9.70
2023-10-06T18:33:39.797Z,8.93
2023-10-06T18:35:44.554Z,11.65
2023-10-06T18:37:49.019Z,12.05
2023-10-06T18:39:53.673Z,12.60
2023-10-06T18:41:58.231Z,10.18
2023-10-06T18:44:11.938Z,11.80
2023-10-06T18:46:16.649Z,10.70
2023-10-06T18:48:30.455Z,12.98
2023-10-06T18:50:36.370Z,12.70
2023-10-06T18:52:43.394Z,8.70
2023-10-06T18:54:48.200Z,10.25
2023-10-06T18:56:53.499Z,11.93
2023-10-06T18:58:58.058Z,14.98
2023-10-06T19:01:04.541Z,13.65
2023-10-06T19:03:08.554Z,11.00
2023-10-06T19:05:14.526Z,10.55
2023-10-06T19:07:21.990Z,10.82
2023-10-06T19:09:26.625Z,11.05
2023-10-06T19:11:30.739Z,10.93
2023-10-06T19:13:35.926Z,12.02
2023-10-06T19:15:43.401Z,10.73
2023-10-06T19:17:47.540Z,13.25
2023-10-06T19:19:53.904Z,11.32
2023-10-06T19:22:01.245Z,11.20
2023-10-06T19:24:06.600Z,11.18
2023-10-06T19:26:12.846Z,11.82
2023-10-06T19:28:18.610Z,12.82
2023-10-06T19:30:24.277Z,13.95
2023-10-06T19:32:28.931Z,13.15
2023-10-06T19:34:33.190Z,13.05
2023-10-06T19:36:37.913Z,12.40
2023-10-06T19:38:44.203Z,12.70
2023-10-06T19:40:48.981Z,10.02
2023-10-06T19:42:53.378Z,11.00
2023-10-06T19:44:57.341Z,12.07
2023-10-06T19:47:04.735Z,11.27
2023-10-06T19:49:09.239Z,11.80
2023-10-06T19:51:14.259Z,12.65
2023-10-06T19:53:17.613Z,12.98
2023-10-06T19:55:22.704Z,12.95
2023-10-06T19:57:30.159Z,16.02
2023-10-06T19:59:35.360Z,17.83
2023-10-06T20:01:39.323Z,14.32
2023-10-06T20:03:46.599Z,17.90
2023-10-06T20:05:50.340Z,12.90
2023-10-06T20:07:55.214Z,15.68
2023-10-06T20:10:00.123Z,11.20
2023-10-06T20:12:10.441Z,13.57
2023-10-06T20:14:14.040Z,11.30
2023-10-06T20:16:18.113Z,14.02
2023-10-06T20:18:21.985Z,10.18
2023-10-06T20:20:29.150Z,14.75
2023-10-06T20:22:37.459Z,12.93
2023-10-06T20:24:47.011Z,11.90
2023-10-06T20:26:51.903Z,14.80
2023-10-06T20:29:00.325Z,14.40
2023-10-06T20:31:05.584Z,14.20
2023-10-06T20:33:09.430Z,12.82
2023-10-06T20:35:14.232Z,13.60
2023-10-06T20:37:18.470Z,12.88
2023-10-06T20:39:23.725Z,12.35
2023-10-06T20:41:29.052Z,11.55
2023-10-06T20:43:35.004Z,11.88
2023-10-06T20:45:40.513Z,18.17
2023-10-06T20:47:46.566Z,15.80
2023-10-06T20:49:51.731Z,12.40
2023-10-06T20:51:55.990Z,11.90
2023-10-06T20:53:59.650Z,14.82
2023-10-06T20:56:04.976Z,11.85
2023-10-06T20:58:11.092Z,13.68
2023-10-06T21:00:14.497Z,13.15
2023-10-06T21:02:19.526Z,16.58
2023-10-06T21:04:23.464Z,14.13
2023-10-06T21:06:29.361Z,13.43
2023-10-06T21:08:33.085Z,13.95
2023-10-06T21:10:36.915Z,16.27
2023-10-06T21:12:40.442Z,13.43
2023-10-06T21:14:49.724Z,13.45
2023-10-06T21:16:58.086Z,12.43
2023-10-06T21:19:03.754Z,13.90
2023-10-06T21:21:07.831Z,14.80
2023-10-06T21:23:11.595Z,16.50
2023-10-06T21:25:16.250Z,13.20
2023-10-06T21:27:20.254Z,13.05
2023-10-06T21:29:24.690Z,13.70
2023-10-06T21:31:28.642Z,12.30
2023-10-06T21:33:32.429Z,14.45
2023-10-06T21:35:37.673Z,12.30
2023-10-06T21:37:41.861Z,10.38
2023-10-06T21:39:46.676Z,14.25
2023-10-06T21:41:51.189Z,12.80
2023-10-06T21:43:55.725Z,13.02
2023-10-06T21:46:03.267Z,13.25
2023-10-06T21:48:09.278Z,13.98
2023-10-06T21:50:14.290Z,15.95
2023-10-06T21:52:19.525Z,16.83
2023-10-06T21:54:23.543Z,13.73
2023-10-06T21:56:27.554Z,17.55
2023-10-06T21:58:34.589Z,14.27
2023-10-06T22:00:43.955Z,13.60
2023-10-06T22:02:48.248Z,15.88
2023-10-06T22:04:54.252Z,15.80
2023-10-06T22:06:57.959Z,14.90
2023-10-06T22:09:03.074Z,13.45
2023-10-06T22:11:06.934Z,16.02
2023-10-06T22:13:14.461Z,12.75
2023-10-06T22:15:18.310Z,14.00
2023-10-06T22:17:21.358Z,12.55
2023-10-06T22:19:25.342Z,13.48
2023-10-06T22:21:29.356Z,13.65
2023-10-06T22:23:34.420Z,15.20
2023-10-06T22:25:39.374Z,12.05
2023-10-06T22:27:44.201Z,13.82
2023-10-06T22:29:48.570Z,12.07
2023-10-06T22:31:52.560Z,14.25
2023-10-06T22:33:56.891Z,13.40
2023-10-06T22:36:00.542Z,12.02
2023-10-06T22:38:05.507Z,14.35
2023-10-06T22:40:18.330Z,18.02
2023-10-06T22:42:23.526Z,11.25
2023-10-06T22:44:27.079Z,13.65
2023-10-06T22:46:33.813Z,13.02
2023-10-06T22:48:40.010Z,14.88
2023-10-06T22:50:43.566Z,12.30
2023-10-06T22:52:48.145Z,17.00
2023-10-06T22:54:52.804Z,13.25
2023-10-06T22:56:56.425Z,13.68
2023-10-06T22:59:01.549Z,13.77
2023-10-06T23:01:05.442Z,15.27
2023-10-06T23:03:09.187Z,15.18
2023-10-06T23:05:18.625Z,14.80
2023-10-06T23:07:28.086Z,17.02
2023-10-06T23:09:41.089Z,14.07
2023-10-06T23:11:49.050Z,15.20
2023-10-06T23:14:01.978Z,13.50
2023-10-06T23:16:17.704Z,16.08
2023-10-06T23:18:27.777Z,11.02
2023-10-06T23:20:45.441Z,13.07
2023-10-06T23:23:01.393Z,17.83
2023-10-06T23:25:14.955Z,16.33
2023-10-06T23:27:26.736Z,14.70
2023-10-06T23:29:36.875Z,14.20
2023-10-06T23:31:49.229Z,13.50
2023-10-06T23:33:57.955Z,17.65
2023-10-06T23:36:08.947Z,13.63
2023-10-06T23:38:19.883Z,13.50
2023-10-06T23:40:36.663Z,16.88
2023-10-06T23:42:49.309Z,17.33
2023-10-06T23:44:59.445Z,14.77
2023-10-06T23:47:11.701Z,14.25
2023-10-06T23:49:22.156Z,16.92
2023-10-06T23:51:34.071Z,14.65
2023-10-06T23:53:45.400Z,14.80
2023-10-06T23:55:56.463Z,16.45
2023-10-06T23:58:09.292Z,16.40
